sensor_id;sensor_type;location;lat;lon;timestamp;P1;durP1;ratioP1;P2;durP2;ratioP2
33421;SDS011;19763;55.798;37.782;2024-03-02T00:01:26;60.33;;;35.72;;
33421;SDS011;19763;55.798;37.782;2024-03-02T00:03:52;59.80;;;35.25;;
33421;SDS011;19763;55.798;37.782;2024-03-02T00:06:19;61.85;;;36.78;;
33421;SDS011;19763;55.798;37.782;2024-03-02T00:08:46;55.80;;;35.70;;
33421;SDS011;19763;55.798;37.782;2024-03-02T00:11:12;60.47;;;37.67;;
33421;SDS011;19763;55.798;37.782;2024-03-02T00:13:40;60.38;;;37.08;;
33421;SDS011;19763;55.798;37.782;2024-03-02T00:16:06;58.65;;;38.53;;
33421;SDS011;19763;55.798;37.782;2024-03-02T00:18:33;65.28;;;38.80;;
33421;SDS011;19763;55.798;37.782;2024-03-02T00:21:00;61.40;;;38.20;;
33421;SDS011;19763;55.798;37.782;2024-03-02T00:23:29;58.25;;;37.95;;
33421;SDS011;19763;55.798;37.782;2024-03-02T00:25:56;60.08;;;36.67;;
33421;SDS011;19763;55.798;37.782;2024-03-02T00:28:26;56.60;;;36.80;;
33421;SDS011;19763;55.798;37.782;2024-03-02T00:31:09;63.72;;;37.85;;
33421;SDS011;19763;55.798;37.782;2024-03-02T00:36:13;61.17;;;36.53;;
33421;SDS011;19763;55.798;37.782;2024-03-02T00:38:45;61.92;;;36.63;;
33421;SDS011;19763;55.798;37.782;2024-03-02T00:41:30;59.35;;;37.00;;
33421;SDS011;19763;55.798;37.782;2024-03-02T00:43:57;63.45;;;38.15;;
33421;SDS011;19763;55.798;37.782;2024-03-02T00:46:32;61.95;;;36.97;;
33421;SDS011;19763;55.798;37.782;2024-03-02T00:49:00;58.55;;;37.42;;
33421;SDS011;19763;55.798;37.782;2024-03-02T00:51:28;60.20;;;36.83;;
33421;SDS011;19763;55.798;37.782;2024-03-02T00:53:55;63.65;;;39.35;;
33421;SDS011;19763;55.798;37.782;2024-03-02T00:56:23;63.95;;;37.80;;
33421;SDS011;19763;55.798;37.782;2024-03-02T00:58:50;62.78;;;37.83;;
33421;SDS011;19763;55.798;37.782;2024-03-02T01:01:17;59.65;;;37.33;;
33421;SDS011;19763;55.798;37.782;2024-03-02T01:03:45;57.65;;;37.28;;
33421;SDS011;19763;55.798;37.782;2024-03-02T01:06:11;57.55;;;37.08;;
33421;SDS011;19763;55.798;37.782;2024-03-02T01:08:37;59.90;;;37.00;;
33421;SDS011;19763;55.798;37.782;2024-03-02T01:11:03;57.58;;;36.50;;
33421;SDS011;19763;55.798;37.782;2024-03-02T01:13:30;68.90;;;38.17;;
33421;SDS011;19763;55.798;37.782;2024-03-02T01:15:56;63.22;;;37.97;;
33421;SDS011;19763;55.798;37.782;2024-03-02T01:18:22;57.25;;;37.67;;
33421;SDS011;19763;55.798;37.782;2024-03-02T01:20:48;57.17;;;37.33;;
33421;SDS011;19763;55.798;37.782;2024-03-02T01:23:17;66.45;;;40.92;;
33421;SDS011;19763;55.798;37.782;2024-03-02T01:25:44;59.65;;;38.95;;
33421;SDS011;19763;55.798;37.782;2024-03-02T01:28:11;60.40;;;39.42;;
33421;SDS011;19763;55.798;37.782;2024-03-02T01:30:37;58.63;;;39.20;;
33421;SDS011;19763;55.798;37.782;2024-03-02T01:33:03;56.90;;;37.53;;
33421;SDS011;19763;55.798;37.782;2024-03-02T01:35:30;64.72;;;39.53;;
33421;SDS011;19763;55.798;37.782;2024-03-02T01:37:57;55.80;;;38.35;;
33421;SDS011;19763;55.798;37.782;2024-03-02T01:40:22;70.50;;;39.20;;
33421;SDS011;19763;55.798;37.782;2024-03-02T01:42:52;64.30;;;38.55;;
33421;SDS011;19763;55.798;37.782;2024-03-02T01:45:24;61.70;;;37.55;;
33421;SDS011;19763;55.798;37.782;2024-03-02T01:47:50;58.45;;;38.13;;
33421;SDS011;19763;55.798;37.782;2024-03-02T01:50:15;60.67;;;38.95;;
33421;SDS011;19763;55.798;37.782;2024-03-02T01:52:49;60.85;;;38.00;;
33421;SDS011;19763;55.798;37.782;2024-03-02T01:55:15;56.00;;;37.40;;
33421;SDS011;19763;55.798;37.782;2024-03-02T01:57:41;61.45;;;40.67;;
33421;SDS011;19763;55.798;37.782;2024-03-02T02:00:07;58.35;;;37.55;;
33421;SDS011;19763;55.798;37.782;2024-03-02T02:02:34;62.20;;;39.00;;
33421;SDS011;19763;55.798;37.782;2024-03-02T02:05:00;60.15;;;38.83;;
33421;SDS011;19763;55.798;37.782;2024-03-02T02:07:26;59.20;;;40.67;;
33421;SDS011;19763;55.798;37.782;2024-03-02T02:09:52;60.45;;;40.17;;
33421;SDS011;19763;55.798;37.782;2024-03-02T02:12:18;62.80;;;38.92;;
33421;SDS011;19763;55.798;37.782;2024-03-02T02:14:49;61.88;;;40.33;;
33421;SDS011;19763;55.798;37.782;2024-03-02T02:17:18;64.00;;;40.70;;
33421;SDS011;19763;55.798;37.782;2024-03-02T02:19:44;64.43;;;42.03;;
33421;SDS011;19763;55.798;37.782;2024-03-02T02:22:10;69.20;;;43.28;;
33421;SDS011;19763;55.798;37.782;2024-03-02T02:24:39;70.63;;;43.60;;
33421;SDS011;19763;55.798;37.782;2024-03-02T02:27:06;65.53;;;42.10;;
33421;SDS011;19763;55.798;37.782;2024-03-02T02:29:32;69.10;;;42.47;;
33421;SDS011;19763;55.798;37.782;2024-03-02T02:31:58;68.25;;;43.10;;
33421;SDS011;19763;55.798;37.782;2024-03-02T02:34:23;69.13;;;44.20;;
33421;SDS011;19763;55.798;37.782;2024-03-02T02:36:49;62.05;;;42.22;;
33421;SDS011;19763;55.798;37.782;2024-03-02T02:39:15;69.78;;;45.20;;
33421;SDS011;19763;55.798;37.782;2024-03-02T02:41:44;66.85;;;44.28;;
33421;SDS011;19763;55.798;37.782;2024-03-02T02:44:09;74.85;;;46.53;;
33421;SDS011;19763;55.798;37.782;2024-03-02T02:46:38;72.10;;;45.78;;
33421;SDS011;19763;55.798;37.782;2024-03-02T02:49:04;70.82;;;45.30;;
33421;SDS011;19763;55.798;37.782;2024-03-02T02:51:30;73.97;;;47.45;;
33421;SDS011;19763;55.798;37.782;2024-03-02T02:53:56;74.55;;;48.17;;
33421;SDS011;19763;55.798;37.782;2024-03-02T02:56:21;66.88;;;46.80;;
33421;SDS011;19763;55.798;37.782;2024-03-02T02:58:47;78.25;;;48.00;;
33421;SDS011;19763;55.798;37.782;2024-03-02T03:01:13;79.85;;;48.28;;
33421;SDS011;19763;55.798;37.782;2024-03-02T03:03:40;78.47;;;49.85;;
33421;SDS011;19763;55.798;37.782;2024-03-02T03:06:06;73.65;;;46.55;;
33421;SDS011;19763;55.798;37.782;2024-03-02T03:08:31;79.38;;;49.35;;
33421;SDS011;19763;55.798;37.782;2024-03-02T03:10:57;80.80;;;49.17;;
33421;SDS011;19763;55.798;37.782;2024-03-02T03:13:23;82.13;;;48.05;;
33421;SDS011;19763;55.798;37.782;2024-03-02T03:15:48;74.20;;;48.75;;
33421;SDS011;19763;55.798;37.782;2024-03-02T03:18:14;84.20;;;49.30;;
33421;SDS011;19763;55.798;37.782;2024-03-02T03:20:40;84.07;;;50.67;;
33421;SDS011;19763;55.798;37.782;2024-03-02T03:23:05;84.07;;;51.00;;
33421;SDS011;19763;55.798;37.782;2024-03-02T03:25:31;81.70;;;51.55;;
33421;SDS011;19763;55.798;37.782;2024-03-02T03:27:56;79.28;;;50.60;;
33421;SDS011;19763;55.798;37.782;2024-03-02T03:30:22;78.20;;;50.55;;
33421;SDS011;19763;55.798;37.782;2024-03-02T03:32:48;82.68;;;51.60;;
33421;SDS011;19763;55.798;37.782;2024-03-02T03:35:14;81.55;;;52.53;;
33421;SDS011;19763;55.798;37.782;2024-03-02T03:37:41;81.38;;;52.63;;
33421;SDS011;19763;55.798;37.782;2024-03-02T03:40:07;82.47;;;50.65;;
33421;SDS011;19763;55.798;37.782;2024-03-02T03:42:35;96.07;;;54.22;;
33421;SDS011;19763;55.798;37.782;2024-03-02T03:45:02;81.75;;;52.78;;
33421;SDS011;19763;55.798;37.782;2024-03-02T03:47:33;82.90;;;54.08;;
33421;SDS011;19763;55.798;37.782;2024-03-02T03:49:59;84.50;;;53.80;;
33421;SDS011;19763;55.798;37.782;2024-03-02T03:52:24;92.07;;;59.42;;
33421;SDS011;19763;55.798;37.782;2024-03-02T03:54:50;97.78;;;60.35;;
33421;SDS011;19763;55.798;37.782;2024-03-02T03:57:16;92.78;;;60.25;;
33421;SDS011;19763;55.798;37.782;2024-03-02T03:59:42;89.88;;;57.13;;
33421;SDS011;19763;55.798;37.782;2024-03-02T04:02:09;87.18;;;56.92;;
33421;SDS011;19763;55.798;37.782;2024-03-02T04:04:36;97.25;;;59.13;;
33421;SDS011;19763;55.798;37.782;2024-03-02T04:07:02;92.07;;;57.92;;
33421;SDS011;19763;55.798;37.782;2024-03-02T04:09:28;89.55;;;56.83;;
33421;SDS011;19763;55.798;37.782;2024-03-02T04:11:53;88.75;;;55.92;;
33421;SDS011;19763;55.798;37.782;2024-03-02T04:14:19;86.35;;;54.15;;
33421;SDS011;19763;55.798;37.782;2024-03-02T04:16:45;87.03;;;52.75;;
33421;SDS011;19763;55.798;37.782;2024-03-02T04:19:10;87.38;;;53.28;;
33421;SDS011;19763;55.798;37.782;2024-03-02T04:21:36;85.32;;;54.38;;
33421;SDS011;19763;55.798;37.782;2024-03-02T04:24:02;89.20;;;54.95;;
33421;SDS011;19763;55.798;37.782;2024-03-02T04:26:28;85.97;;;53.60;;
33421;SDS011;19763;55.798;37.782;2024-03-02T04:28:54;94.18;;;52.10;;
33421;SDS011;19763;55.798;37.782;2024-03-02T04:31:20;79.80;;;49.97;;
33421;SDS011;19763;55.798;37.782;2024-03-02T04:33:46;83.25;;;54.45;;
33421;SDS011;19763;55.798;37.782;2024-03-02T04:36:11;98.80;;;55.90;;
33421;SDS011;19763;55.798;37.782;2024-03-02T04:38:37;86.07;;;56.00;;
33421;SDS011;19763;55.798;37.782;2024-03-02T04:41:04;82.47;;;56.53;;
33421;SDS011;19763;55.798;37.782;2024-03-02T04:43:33;91.82;;;56.15;;
33421;SDS011;19763;55.798;37.782;2024-03-02T04:46:00;87.63;;;52.13;;
33421;SDS011;19763;55.798;37.782;2024-03-02T04:48:26;91.75;;;55.50;;
33421;SDS011;19763;55.798;37.782;2024-03-02T04:50:52;88.70;;;54.38;;
33421;SDS011;19763;55.798;37.782;2024-03-02T04:53:18;89.57;;;55.15;;
33421;SDS011;19763;55.798;37.782;2024-03-02T04:55:43;87.45;;;52.47;;
33421;SDS011;19763;55.798;37.782;2024-03-02T04:58:09;82.20;;;47.92;;
33421;SDS011;19763;55.798;37.782;2024-03-02T05:00:35;76.90;;;47.92;;
33421;SDS011;19763;55.798;37.782;2024-03-02T05:03:01;82.22;;;48.10;;
33421;SDS011;19763;55.798;37.782;2024-03-02T05:05:27;76.57;;;46.40;;
33421;SDS011;19763;55.798;37.782;2024-03-02T05:07:53;73.75;;;48.35;;
33421;SDS011;19763;55.798;37.782;2024-03-02T05:10:18;86.22;;;48.05;;
33421;SDS011;19763;55.798;37.782;2024-03-02T05:12:44;79.72;;;49.15;;
33421;SDS011;19763;55.798;37.782;2024-03-02T05:15:11;74.88;;;48.80;;
33421;SDS011;19763;55.798;37.782;2024-03-02T05:17:38;81.35;;;52.08;;
33421;SDS011;19763;55.798;37.782;2024-03-02T05:20:04;84.05;;;55.50;;
33421;SDS011;19763;55.798;37.782;2024-03-02T05:22:33;89.95;;;60.08;;
33421;SDS011;19763;55.798;37.782;2024-03-02T05:25:05;95.45;;;64.90;;
33421;SDS011;19763;55.798;37.782;2024-03-02T05:27:32;97.38;;;62.00;;
33421;SDS011;19763;55.798;37.782;2024-03-02T05:30:00;88.57;;;57.90;;
33421;SDS011;19763;55.798;37.782;2024-03-02T05:32:30;96.03;;;60.78;;
33421;SDS011;19763;55.798;37.782;2024-03-02T05:34:56;93.15;;;61.42;;
33421;SDS011;19763;55.798;37.782;2024-03-02T05:37:21;94.75;;;59.78;;
33421;SDS011;19763;55.798;37.782;2024-03-02T05:39:47;86.05;;;56.05;;
33421;SDS011;19763;55.798;37.782;2024-03-02T05:42:13;83.75;;;54.08;;
33421;SDS011;19763;55.798;37.782;2024-03-02T05:44:38;75.80;;;47.05;;
33421;SDS011;19763;55.798;37.782;2024-03-02T05:47:04;74.72;;;48.08;;
33421;SDS011;19763;55.798;37.782;2024-03-02T05:49:30;71.82;;;43.25;;
33421;SDS011;19763;55.798;37.782;2024-03-02T05:51:56;69.55;;;42.53;;
33421;SDS011;19763;55.798;37.782;2024-03-02T05:54:22;71.72;;;44.28;;
33421;SDS011;19763;55.798;37.782;2024-03-02T05:56:48;66.50;;;39.83;;
33421;SDS011;19763;55.798;37.782;2024-03-02T05:59:14;66.30;;;40.95;;
33421;SDS011;19763;55.798;37.782;2024-03-02T06:01:41;70.07;;;40.35;;
33421;SDS011;19763;55.798;37.782;2024-03-02T06:04:08;62.85;;;40.03;;
33421;SDS011;19763;55.798;37.782;2024-03-02T06:06:36;71.28;;;42.08;;
33421;SDS011;19763;55.798;37.782;2024-03-02T06:09:03;63.05;;;40.60;;
33421;SDS011;19763;55.798;37.782;2024-03-02T06:11:34;66.28;;;40.83;;
33421;SDS011;19763;55.798;37.782;2024-03-02T06:13:59;66.93;;;41.83;;
33421;SDS011;19763;55.798;37.782;2024-03-02T06:16:25;66.20;;;40.65;;
33421;SDS011;19763;55.798;37.782;2024-03-02T06:18:50;66.38;;;40.25;;
33421;SDS011;19763;55.798;37.782;2024-03-02T06:21:16;69.88;;;41.13;;
33421;SDS011;19763;55.798;37.782;2024-03-02T06:23:43;65.28;;;42.50;;
33421;SDS011;19763;55.798;37.782;2024-03-02T06:26:09;69.55;;;41.22;;
33421;SDS011;19763;55.798;37.782;2024-03-02T06:28:35;74.43;;;43.83;;
33421;SDS011;19763;55.798;37.782;2024-03-02T06:31:01;69.22;;;43.63;;
33421;SDS011;19763;55.798;37.782;2024-03-02T06:33:27;70.63;;;42.63;;
33421;SDS011;19763;55.798;37.782;2024-03-02T06:35:53;66.85;;;43.33;;
33421;SDS011;19763;55.798;37.782;2024-03-02T06:38:19;72.53;;;43.88;;
33421;SDS011;19763;55.798;37.782;2024-03-02T06:40:45;74.05;;;45.22;;
33421;SDS011;19763;55.798;37.782;2024-03-02T06:43:11;78.72;;;46.70;;
33421;SDS011;19763;55.798;37.782;2024-03-02T06:45:36;71.43;;;44.05;;
33421;SDS011;19763;55.798;37.782;2024-03-02T06:48:02;77.15;;;45.88;;
33421;SDS011;19763;55.798;37.782;2024-03-02T06:50:28;73.13;;;45.63;;
33421;SDS011;19763;55.798;37.782;2024-03-02T06:52:53;72.63;;;45.22;;
33421;SDS011;19763;55.798;37.782;2024-03-02T06:55:21;74.13;;;44.67;;
33421;SDS011;19763;55.798;37.782;2024-03-02T06:57:47;73.18;;;44.15;;
33421;SDS011;19763;55.798;37.782;2024-03-02T07:00:13;72.32;;;44.35;;
33421;SDS011;19763;55.798;37.782;2024-03-02T07:02:39;69.72;;;44.03;;
33421;SDS011;19763;55.798;37.782;2024-03-02T07:05:08;68.82;;;42.35;;
33421;SDS011;19763;55.798;37.782;2024-03-02T07:07:34;69.95;;;44.15;;
33421;SDS011;19763;55.798;37.782;2024-03-02T07:10:00;68.43;;;41.58;;
33421;SDS011;19763;55.798;37.782;2024-03-02T07:12:27;67.82;;;43.58;;
33421;SDS011;19763;55.798;37.782;2024-03-02T07:14:53;63.47;;;43.28;;
33421;SDS011;19763;55.798;37.782;2024-03-02T07:17:31;63.13;;;42.17;;
33421;SDS011;19763;55.798;37.782;2024-03-02T07:19:57;66.57;;;42.05;;
33421;SDS011;19763;55.798;37.782;2024-03-02T07:22:23;70.38;;;42.47;;
33421;SDS011;19763;55.798;37.782;2024-03-02T07:24:49;65.05;;;43.17;;
33421;SDS011;19763;55.798;37.782;2024-03-02T07:27:14;66.25;;;42.75;;
33421;SDS011;19763;55.798;37.782;2024-03-02T07:29:41;68.97;;;43.63;;
33421;SDS011;19763;55.798;37.782;2024-03-02T07:32:08;58.03;;;40.70;;
33421;SDS011;19763;55.798;37.782;2024-03-02T07:34:34;70.10;;;42.65;;
33421;SDS011;19763;55.798;37.782;2024-03-02T07:37:00;64.97;;;42.78;;
33421;SDS011;19763;55.798;37.782;2024-03-02T07:39:26;60.08;;;38.15;;
33421;SDS011;19763;55.798;37.782;2024-03-02T07:41:52;59.65;;;39.97;;
33421;SDS011;19763;55.798;37.782;2024-03-02T07:44:18;65.97;;;43.53;;
33421;SDS011;19763;55.798;37.782;2024-03-02T07:46:47;65.43;;;41.95;;
33421;SDS011;19763;55.798;37.782;2024-03-02T07:49:16;67.55;;;44.35;;
33421;SDS011;19763;55.798;37.782;2024-03-02T07:51:42;65.28;;;43.50;;
33421;SDS011;19763;55.798;37.782;2024-03-02T07:54:09;72.95;;;49.50;;
33421;SDS011;19763;55.798;37.782;2024-03-02T07:56:35;69.10;;;44.78;;
33421;SDS011;19763;55.798;37.782;2024-03-02T07:59:01;68.40;;;43.33;;
33421;SDS011;19763;55.798;37.782;2024-03-02T08:01:28;66.28;;;44.28;;
33421;SDS011;19763;55.798;37.782;2024-03-02T08:03:57;65.25;;;44.45;;
33421;SDS011;19763;55.798;37.782;2024-03-02T08:06:24;64.45;;;42.42;;
33421;SDS011;19763;55.798;37.782;2024-03-02T08:08:53;67.72;;;43.15;;
33421;SDS011;19763;55.798;37.782;2024-03-02T08:11:20;61.72;;;40.30;;
33421;SDS011;19763;55.798;37.782;2024-03-02T08:13:46;61.65;;;41.05;;
33421;SDS011;19763;55.798;37.782;2024-03-02T08:16:13;59.63;;;40.08;;
33421;SDS011;19763;55.798;37.782;2024-03-02T08:18:40;61.22;;;43.03;;
33421;SDS011;19763;55.798;37.782;2024-03-02T08:21:05;64.47;;;40.55;;
33421;SDS011;19763;55.798;37.782;2024-03-02T08:23:33;60.92;;;40.95;;
33421;SDS011;19763;55.798;37.782;2024-03-02T08:25:59;63.63;;;40.05;;
33421;SDS011;19763;55.798;37.782;2024-03-02T08:28:25;62.38;;;40.20;;
33421;SDS011;19763;55.798;37.782;2024-03-02T08:30:51;63.63;;;39.78;;
33421;SDS011;19763;55.798;37.782;2024-03-02T08:33:17;61.55;;;38.00;;
33421;SDS011;19763;55.798;37.782;2024-03-02T08:35:42;60.80;;;38.08;;
33421;SDS011;19763;55.798;37.782;2024-03-02T08:38:08;57.80;;;37.67;;
33421;SDS011;19763;55.798;37.782;2024-03-02T08:40:34;58.10;;;36.95;;
33421;SDS011;19763;55.798;37.782;2024-03-02T08:43:00;56.63;;;37.58;;
33421;SDS011;19763;55.798;37.782;2024-03-02T08:45:25;62.35;;;39.30;;
33421;SDS011;19763;55.798;37.782;2024-03-02T08:47:51;63.20;;;38.28;;
33421;SDS011;19763;55.798;37.782;2024-03-02T08:50:17;55.40;;;34.20;;
33421;SDS011;19763;55.798;37.782;2024-03-02T08:52:43;52.75;;;33.83;;
33421;SDS011;19763;55.798;37.782;2024-03-02T08:55:09;57.42;;;35.15;;
33421;SDS011;19763;55.798;37.782;2024-03-02T08:57:36;55.53;;;35.47;;
33421;SDS011;19763;55.798;37.782;2024-03-02T09:00:02;54.85;;;33.75;;
33421;SDS011;19763;55.798;37.782;2024-03-02T09:02:30;55.00;;;34.58;;
33421;SDS011;19763;55.798;37.782;2024-03-02T09:04:56;56.50;;;34.33;;
33421;SDS011;19763;55.798;37.782;2024-03-02T09:07:22;55.90;;;35.15;;
33421;SDS011;19763;55.798;37.782;2024-03-02T09:09:48;53.35;;;34.22;;
33421;SDS011;19763;55.798;37.782;2024-03-02T09:12:13;54.60;;;35.05;;
33421;SDS011;19763;55.798;37.782;2024-03-02T09:14:40;53.30;;;34.47;;
33421;SDS011;19763;55.798;37.782;2024-03-02T09:17:05;50.15;;;33.70;;
33421;SDS011;19763;55.798;37.782;2024-03-02T09:19:31;50.65;;;33.67;;
33421;SDS011;19763;55.798;37.782;2024-03-02T09:21:57;54.40;;;33.17;;
33421;SDS011;19763;55.798;37.782;2024-03-02T09:24:24;58.05;;;34.33;;
33421;SDS011;19763;55.798;37.782;2024-03-02T09:26:49;54.03;;;33.15;;
33421;SDS011;19763;55.798;37.782;2024-03-02T09:29:15;53.47;;;34.03;;
33421;SDS011;19763;55.798;37.782;2024-03-02T09:31:41;49.25;;;32.63;;
33421;SDS011;19763;55.798;37.782;2024-03-02T09:34:07;52.67;;;33.65;;
33421;SDS011;19763;55.798;37.782;2024-03-02T09:36:33;49.03;;;30.83;;
33421;SDS011;19763;55.798;37.782;2024-03-02T09:38:59;53.80;;;32.78;;
33421;SDS011;19763;55.798;37.782;2024-03-02T09:41:24;47.65;;;32.22;;
33421;SDS011;19763;55.798;37.782;2024-03-02T09:43:50;51.63;;;32.90;;
33421;SDS011;19763;55.798;37.782;2024-03-02T09:46:16;51.85;;;33.17;;
33421;SDS011;19763;55.798;37.782;2024-03-02T09:48:43;50.65;;;33.17;;
33421;SDS011;19763;55.798;37.782;2024-03-02T09:51:09;52.95;;;31.75;;
33421;SDS011;19763;55.798;37.782;2024-03-02T09:53:35;57.45;;;33.67;;
33421;SDS011;19763;55.798;37.782;2024-03-02T09:56:01;46.40;;;31.27;;
33421;SDS011;19763;55.798;37.782;2024-03-02T09:58:27;56.28;;;34.70;;
33421;SDS011;19763;55.798;37.782;2024-03-02T10:00:54;50.60;;;32.55;;
33421;SDS011;19763;55.798;37.782;2024-03-02T10:03:19;54.78;;;32.53;;
33421;SDS011;19763;55.798;37.782;2024-03-02T10:05:46;50.00;;;32.47;;
33421;SDS011;19763;55.798;37.782;2024-03-02T10:08:12;51.97;;;31.75;;
33421;SDS011;19763;55.798;37.782;2024-03-02T10:10:38;50.08;;;32.45;;
33421;SDS011;19763;55.798;37.782;2024-03-02T10:13:09;53.58;;;33.88;;
33421;SDS011;19763;55.798;37.782;2024-03-02T10:15:36;52.47;;;34.53;;
33421;SDS011;19763;55.798;37.782;2024-03-02T10:18:09;46.00;;;32.22;;
33421;SDS011;19763;55.798;37.782;2024-03-02T10:20:39;49.97;;;32.67;;
33421;SDS011;19763;55.798;37.782;2024-03-02T10:23:12;50.38;;;34.22;;
33421;SDS011;19763;55.798;37.782;2024-03-02T10:25:40;52.25;;;32.97;;
33421;SDS011;19763;55.798;37.782;2024-03-02T10:28:06;50.00;;;33.78;;
33421;SDS011;19763;55.798;37.782;2024-03-02T10:30:35;58.97;;;33.15;;
33421;SDS011;19763;55.798;37.782;2024-03-02T10:33:01;51.65;;;32.70;;
33421;SDS011;19763;55.798;37.782;2024-03-02T10:35:28;57.35;;;33.95;;
33421;SDS011;19763;55.798;37.782;2024-03-02T10:37:54;49.92;;;32.53;;
33421;SDS011;19763;55.798;37.782;2024-03-02T10:40:23;49.30;;;31.58;;
33421;SDS011;19763;55.798;37.782;2024-03-02T10:42:51;48.13;;;30.35;;
33421;SDS011;19763;55.798;37.782;2024-03-02T10:45:19;48.67;;;30.90;;
33421;SDS011;19763;55.798;37.782;2024-03-02T10:47:47;44.25;;;29.30;;
33421;SDS011;19763;55.798;37.782;2024-03-02T10:50:13;46.40;;;28.80;;
33421;SDS011;19763;55.798;37.782;2024-03-02T10:52:39;48.72;;;31.55;;
33421;SDS011;19763;55.798;37.782;2024-03-02T10:55:06;46.28;;;32.92;;
33421;SDS011;19763;55.798;37.782;2024-03-02T11:00:07;42.38;;;30.92;;
33421;SDS011;19763;55.798;37.782;2024-03-02T11:02:41;44.92;;;31.27;;
33421;SDS011;19763;55.798;37.782;2024-03-02T11:05:13;50.28;;;31.92;;
33421;SDS011;19763;55.798;37.782;2024-03-02T11:07:46;50.53;;;32.55;;
33421;SDS011;19763;55.798;37.782;2024-03-02T11:10:12;46.05;;;32.35;;
33421;SDS011;19763;55.798;37.782;2024-03-02T11:12:39;49.25;;;31.13;;
33421;SDS011;19763;55.798;37.782;2024-03-02T11:15:14;52.00;;;31.52;;
33421;SDS011;19763;55.798;37.782;2024-03-02T11:17:44;48.17;;;31.52;;
33421;SDS011;19763;55.798;37.782;2024-03-02T11:20:11;47.80;;;31.75;;
33421;SDS011;19763;55.798;37.782;2024-03-02T11:22:38;43.85;;;31.13;;
33421;SDS011;19763;55.798;37.782;2024-03-02T11:25:04;43.85;;;29.45;;
33421;SDS011;19763;55.798;37.782;2024-03-02T11:30:48;46.15;;;29.67;;
33421;SDS011;19763;55.798;37.782;2024-03-02T11:33:00;45.08;;;30.40;;
33421;SDS011;19763;55.798;37.782;2024-03-02T11:35:36;49.83;;;31.65;;
33421;SDS011;19763;55.798;37.782;2024-03-02T11:38:03;46.83;;;30.23;;
33421;SDS011;19763;55.798;37.782;2024-03-02T11:40:29;46.88;;;30.17;;
33421;SDS011;19763;55.798;37.782;2024-03-02T11:43:04;50.10;;;29.92;;
33421;SDS011;19763;55.798;37.782;2024-03-02T11:45:31;48.90;;;30.63;;
33421;SDS011;19763;55.798;37.782;2024-03-02T11:47:58;52.95;;;31.05;;
33421;SDS011;19763;55.798;37.782;2024-03-02T11:50:31;45.53;;;31.10;;
33421;SDS011;19763;55.798;37.782;2024-03-02T11:52:59;47.35;;;30.77;;
33421;SDS011;19763;55.798;37.782;2024-03-02T11:55:25;48.70;;;31.58;;
33421;SDS011;19763;55.798;37.782;2024-03-02T11:57:54;48.45;;;30.55;;
33421;SDS011;19763;55.798;37.782;2024-03-02T12:00:20;48.42;;;31.50;;
33421;SDS011;19763;55.798;37.782;2024-03-02T12:03:02;47.67;;;29.60;;
33421;SDS011;19763;55.798;37.782;2024-03-02T12:05:30;41.05;;;28.20;;
33421;SDS011;19763;55.798;37.782;2024-03-02T12:08:00;49.88;;;30.35;;
33421;SDS011;19763;55.798;37.782;2024-03-02T12:10:27;49.83;;;30.25;;
33421;SDS011;19763;55.798;37.782;2024-03-02T12:12:56;45.58;;;28.95;;
33421;SDS011;19763;55.798;37.782;2024-03-02T12:15:23;52.35;;;32.28;;
33421;SDS011;19763;55.798;37.782;2024-03-02T12:17:54;45.08;;;28.38;;
33421;SDS011;19763;55.798;37.782;2024-03-02T12:20:24;41.67;;;27.95;;
33421;SDS011;19763;55.798;37.782;2024-03-02T12:22:51;46.65;;;27.63;;
33421;SDS011;19763;55.798;37.782;2024-03-02T12:25:18;43.22;;;27.55;;
33421;SDS011;19763;55.798;37.782;2024-03-02T12:27:49;37.75;;;24.92;;
33421;SDS011;19763;55.798;37.782;2024-03-02T12:30:17;36.05;;;24.83;;
33421;SDS011;19763;55.798;37.782;2024-03-02T12:32:46;40.38;;;24.58;;
33421;SDS011;19763;55.798;37.782;2024-03-02T12:35:12;39.28;;;25.17;;
33421;SDS011;19763;55.798;37.782;2024-03-02T12:37:45;43.15;;;26.15;;
33421;SDS011;19763;55.798;37.782;2024-03-02T12:40:13;39.10;;;25.42;;
33421;SDS011;19763;55.798;37.782;2024-03-02T12:42:44;42.42;;;25.50;;
33421;SDS011;19763;55.798;37.782;2024-03-02T12:45:11;37.97;;;25.77;;
33421;SDS011;19763;55.798;37.782;2024-03-02T12:47:39;40.75;;;26.98;;
33421;SDS011;19763;55.798;37.782;2024-03-02T12:50:05;42.92;;;26.52;;
33421;SDS011;19763;55.798;37.782;2024-03-02T12:52:32;45.33;;;26.55;;
33421;SDS011;19763;55.798;37.782;2024-03-02T12:54:59;45.42;;;27.02;;
33421;SDS011;19763;55.798;37.782;2024-03-02T12:57:26;43.17;;;27.17;;
33421;SDS011;19763;55.798;37.782;2024-03-02T12:59:56;41.97;;;25.63;;
33421;SDS011;19763;55.798;37.782;2024-03-02T13:02:29;41.22;;;27.08;;
33421;SDS011;19763;55.798;37.782;2024-03-02T13:04:56;35.50;;;26.13;;
33421;SDS011;19763;55.798;37.782;2024-03-02T13:07:24;42.40;;;26.25;;
33421;SDS011;19763;55.798;37.782;2024-03-02T13:09:52;43.97;;;26.02;;
33421;SDS011;19763;55.798;37.782;2024-03-02T13:12:22;40.20;;;26.40;;
33421;SDS011;19763;55.798;37.782;2024-03-02T13:14:51;34.55;;;24.15;;
33421;SDS011;19763;55.798;37.782;2024-03-02T13:17:17;37.72;;;25.15;;
33421;SDS011;19763;55.798;37.782;2024-03-02T13:19:56;35.88;;;24.02;;
33421;SDS011;19763;55.798;37.782;2024-03-02T13:22:23;43.53;;;25.67;;
33421;SDS011;19763;55.798;37.782;2024-03-02T13:24:50;43.70;;;26.77;;
33421;SDS011;19763;55.798;37.782;2024-03-02T13:27:16;36.13;;;23.95;;
33421;SDS011;19763;55.798;37.782;2024-03-02T13:29:45;41.88;;;26.15;;
33421;SDS011;19763;55.798;37.782;2024-03-02T13:32:12;39.58;;;25.17;;
33421;SDS011;19763;55.798;37.782;2024-03-02T13:34:39;43.55;;;26.23;;
33421;SDS011;19763;55.798;37.782;2024-03-02T13:37:04;36.50;;;24.73;;
33421;SDS011;19763;55.798;37.782;2024-03-02T13:39:31;40.78;;;24.08;;
33421;SDS011;19763;55.798;37.782;2024-03-02T13:41:58;35.15;;;24.27;;
33421;SDS011;19763;55.798;37.782;2024-03-02T13:44:30;35.45;;;23.73;;
33421;SDS011;19763;55.798;37.782;2024-03-02T13:46:56;41.25;;;25.08;;
33421;SDS011;19763;55.798;37.782;2024-03-02T13:49:22;38.38;;;25.02;;
33421;SDS011;19763;55.798;37.782;2024-03-02T13:51:48;39.08;;;25.33;;
33421;SDS011;19763;55.798;37.782;2024-03-02T13:54:14;39.78;;;25.00;;
33421;SDS011;19763;55.798;37.782;2024-03-02T13:56:40;39.00;;;26.20;;
33421;SDS011;19763;55.798;37.782;2024-03-02T13:59:06;39.78;;;24.25;;
33421;SDS011;19763;55.798;37.782;2024-03-02T14:01:33;35.92;;;23.70;;
33421;SDS011;19763;55.798;37.782;2024-03-02T14:03:59;39.33;;;26.27;;
33421;SDS011;19763;55.798;37.782;2024-03-02T14:06:25;42.83;;;25.45;;
33421;SDS011;19763;55.798;37.782;2024-03-02T14:08:52;34.72;;;25.40;;
33421;SDS011;19763;55.798;37.782;2024-03-02T14:11:18;37.15;;;22.80;;
33421;SDS011;19763;55.798;37.782;2024-03-02T14:13:44;44.30;;;25.58;;
33421;SDS011;19763;55.798;37.782;2024-03-02T14:16:15;38.53;;;25.75;;